Time;durP1;ratioP1;P1;durP2;ratioP2;P2;SDS_P1;SDS_P2;PMS_P1;PMS_P2;Temp;Humidity;BMP_temperature;BMP_pressure;BME280_temperature;BME280_humidity;BME280_pressure;Samples;Min_cycle;Max_cycle;Signal;HPM_P1;HPM_P2
2024/01/04 00:02:02;;;;;;;9.40;1.30;;;;;;;;;;4991389;28;20010;-80
2024/01/04 00:04:33;;;;;;;4.70;1.67;;;;;;;;;;5001642;28;20040;-80
2024/01/04 00:07:05;;;;;;;6.35;1.05;;;;;;;;;;4998581;28;20034;-80
2024/01/04 00:09:35;;;;;;;4.73;1.30;;;;;;;;;;5001708;28;20030;-80
2024/01/04 00:15:43;;;;;;;7.03;1.00;;;;;;;;;;5101394;23;20048;-80
2024/01/04 00:18:19;;;;;;;5.33;0.80;;;;;;;;;;4953082;28;20029;-79
2024/01/04 00:21:02;;;;;;;;;;;;;;;;;;;;;
2024/01/04 00:23:48;;;;;;;3.77;1.67;;;;;;;;;;5036111;28;20034;-79
2024/01/04 00:29:08;;;;;;;4.40;1.20;;;;;;;;;;5022798;28;20015;-80
2024/01/04 00:31:42;;;;;;;4.83;1.70;;;;;;;;;;5017539;28;20024;-80
2024/01/04 00:34:11;;;;;;;9.00;1.70;;;;;;;;;;5019197;28;20065;-80
2024/01/04 00:42:39;;;;;;;7.57;2.50;;;;;;;;;;5034111;28;20188;-80
2024/01/04 00:45:18;;;;;;;;;;;;;;;;;;;;;
2024/01/04 00:50:58;;;;;;;8.67;2.00;;;;;;;;;;5018302;28;20022;-80
2024/01/04 00:53:43;;;;;;;11.93;2.47;;;;;;;;;;5015422;28;20018;-80
2024/01/04 00:56:33;;;;;;;9.83;2.17;;;;;;;;;;5016185;28;20028;-80
2024/01/04 00:59:28;;;;;;;9.67;2.50;;;;;;;;;;5007570;28;21174;-80
2024/01/04 01:01:53;;;;;;;12.37;2.20;;;;;;;;;;5030253;28;20116;-80
2024/01/04 01:04:39;;;;;;;7.90;2.40;;;;;;;;;;5014352;28;20022;-80
2024/01/04 01:07:10;;;;;;;11.23;2.50;;;;;;;;;;5017359;28;20028;-79
2024/01/04 01:09:49;;;;;;;8.37;3.07;;;;;;;;;;5019548;28;20085;-80
2024/01/04 01:12:28;;;;;;;;;;;;;;;;;;;;;
2024/01/04 01:15:12;;;;;;;9.27;2.53;;;;;;;;;;5138543;23;20066;-79
2024/01/04 01:18:02;;;;;;;;;;;;;;;;;;;;;
2024/01/04 01:20:39;;;;;;;;;;;;;;;;;;;;;
2024/01/04 01:23:25;;;;;;;13.53;2.30;;;;;;;;;;5014752;28;20054;-80
2024/01/04 01:25:54;;;;;;;5.87;2.07;;;;;;;;;;5000349;28;20015;-80
2024/01/04 01:28:31;;;;;;;10.43;2.37;;;;;;;;;;5016623;28;20041;-80
2024/01/04 01:31:09;;;;;;;7.90;2.10;;;;;;;;;;4999065;28;20049;-79
2024/01/04 01:33:48;;;;;;;9.57;3.27;;;;;;;;;;5000619;28;20031;-79
2024/01/04 01:36:19;;;;;;;8.90;2.50;;;;;;;;;;4998753;28;20034;-80
2024/01/04 01:38:55;;;;;;;6.03;3.13;;;;;;;;;;5000156;28;20122;-79
2024/01/04 01:41:37;;;;;;;12.97;2.70;;;;;;;;;;4999870;28;20019;-80
2024/01/04 01:44:05;;;;;;;8.38;2.40;;;;;;;;;;5157937;23;20060;-79
2024/01/04 01:49:40;;;;;;;4.57;2.10;;;;;;;;;;5008024;28;20049;-80
2024/01/04 01:52:30;;;;;;;10.17;2.57;;;;;;;;;;4993073;28;20069;-80
2024/01/04 01:55:01;;;;;;;7.97;2.07;;;;;;;;;;5010906;28;20023;-80
2024/01/04 01:57:31;;;;;;;6.40;2.27;;;;;;;;;;5009684;28;20077;-80
2024/01/04 02:00:02;;;;;;;8.00;2.13;;;;;;;;;;5010020;28;20037;-79
2024/01/04 02:02:34;;;;;;;3.67;1.67;;;;;;;;;;4992646;28;20050;-80
2024/01/04 02:05:02;;;;;;;6.00;2.27;;;;;;;;;;4995140;28;20037;-80
2024/01/04 02:10:34;;;;;;;9.73;2.07;;;;;;;;;;5013158;28;20050;-80
2024/01/04 02:13:09;;;;;;;4.97;2.50;;;;;;;;;;5013734;28;20015;-80
2024/01/04 02:15:39;;;;;;;10.20;2.37;;;;;;;;;;5053414;23;20026;-80
2024/01/04 02:18:08;;;;;;;13.23;2.53;;;;;;;;;;5007469;28;20062;-80
2024/01/04 02:20:37;;;;;;;17.83;3.93;;;;;;;;;;4993927;28;20040;-80
2024/01/04 02:23:21;;;;;;;13.03;2.90;;;;;;;;;;4994007;28;20034;-80
2024/01/04 02:26:07;;;;;;;9.77;2.77;;;;;;;;;;4991071;28;20034;-80
2024/01/04 02:31:21;;;;;;;13.47;3.20;;;;;;;;;;5009118;28;20039;-79
2024/01/04 02:36:43;;;;;;;9.83;2.37;;;;;;;;;;4971648;28;20039;-79
2024/01/04 02:39:17;;;;;;;7.27;3.97;;;;;;;;;;4990610;28;20043;-79
2024/01/04 02:41:45;;;;;;;9.33;2.63;;;;;;;;;;4992207;28;20007;-79
2024/01/04 02:47:14;;;;;;;11.67;3.53;;;;;;;;;;5009444;28;20065;-79
2024/01/04 02:49:40;;;;;;;10.48;3.25;;;;;;;;;;4992250;28;20041;-79
2024/01/04 02:52:16;;;;;;;;;;;;;;;;;;;;;
2024/01/04 02:54:54;;;;;;;11.93;4.03;;;;;;;;;;5005512;28;20059;-79
2024/01/04 02:57:42;;;;;;;15.13;4.13;;;;;;;;;;5006825;28;20042;-80
2024/01/04 03:00:27;;;;;;;10.40;3.17;;;;;;;;;;4990665;28;20200;-80
2024/01/04 03:03:18;;;;;;;10.87;3.87;;;;;;;;;;5009799;28;20111;-80
2024/01/04 03:05:49;;;;;;;9.43;3.70;;;;;;;;;;4989381;28;20026;-79
2024/01/04 03:08:31;;;;;;;;;;;;;;;;;;;;;
2024/01/04 03:11:03;;;;;;;10.18;3.85;;;;;;;;;;5007492;28;20050;-79
2024/01/04 03:13:40;;;;;;;11.27;3.47;;;;;;;;;;4991163;28;20030;-79
2024/01/04 03:16:06;;;;;;;9.33;3.67;;;;;;;;;;4990252;28;20284;-79
2024/01/04 03:18:47;;;;;;;10.93;3.60;;;;;;;;;;4989705;28;20038;-79
2024/01/04 03:21:31;;;;;;;;;;;;;;;;;;;;;
2024/01/04 03:24:20;;;;;;;11.30;3.40;;;;;;;;;;5005141;28;20045;-80
2024/01/04 03:26:49;;;;;;;11.70;4.00;;;;;;;;;;5006866;28;20030;-79
2024/01/04 03:29:55;;;;;;;11.00;3.77;;;;;;;;;;4988510;28;20198;-79
2024/01/04 03:32:21;;;;;;;7.57;3.33;;;;;;;;;;4991680;28;20026;-80
2024/01/04 03:37:58;;;;;;;6.40;3.30;;;;;;;;;;4994865;28;20042;-80
2024/01/04 03:49:01;;;;;;;9.23;2.93;;;;;;;;;;5084292;23;20042;-80
2024/01/04 03:51:32;;;;;;;11.57;3.13;;;;;;;;;;5016257;28;20021;-79
2024/01/04 03:54:18;;;;;;;9.50;3.03;;;;;;;;;;5017641;28;20036;-79
2024/01/04 03:56:46;;;;;;;6.77;2.90;;;;;;;;;;5019130;28;20021;-80
2024/01/04 03:59:18;;;;;;;8.73;3.50;;;;;;;;;;5005037;28;20034;-79
2024/01/04 04:04:35;;;;;;;7.73;3.13;;;;;;;;;;5020656;28;20044;-79
2024/01/04 04:07:21;;;;;;;8.23;2.70;;;;;;;;;;5019110;28;20006;-79
2024/01/04 04:09:53;;;;;;;8.57;3.20;;;;;;;;;;5013504;28;20026;-79
2024/01/04 04:12:35;;;;;;;;;;;;;;;;;;;;;
2024/01/04 04:15:23;;;;;;;17.27;3.92;;;;;;;;;;5034211;28;20053;-79
2024/01/04 04:17:55;;;;;;;7.97;3.00;;;;;;;;;;5002354;28;20025;-79
2024/01/04 04:20:21;;;;;;;10.43;3.20;;;;;;;;;;5032523;28;20038;-79
2024/01/04 04:22:52;;;;;;;11.23;4.23;;;;;;;;;;5019425;28;20021;-79
2024/01/04 04:25:26;;;;;;;7.70;3.30;;;;;;;;;;5004901;28;20014;-79
2024/01/04 04:30:43;;;;;;;12.17;4.17;;;;;;;;;;5031708;28;20026;-79
2024/01/04 04:33:27;;;;;;;10.53;3.70;;;;;;;;;;5016132;28;20018;-79
2024/01/04 04:36:16;;;;;;;10.30;3.50;;;;;;;;;;5005492;28;20026;-80
2024/01/04 04:41:55;;;;;;;9.63;3.03;;;;;;;;;;5035415;28;20017;-80
2024/01/04 04:44:23;;;;;;;6.93;3.33;;;;;;;;;;5020580;28;20018;-79
2024/01/04 04:46:53;;;;;;;13.03;4.27;;;;;;;;;;5037667;28;20037;-79
2024/01/04 04:49:28;;;;;;;9.47;3.07;;;;;;;;;;5018118;28;20211;-80
2024/01/04 04:51:58;;;;;;;13.63;4.17;;;;;;;;;;5025485;28;20010;-79
2024/01/04 04:54:32;;;;;;;13.03;4.47;;;;;;;;;;5019255;28;20096;-80
2024/01/04 04:59:52;;;;;;;9.33;4.63;;;;;;;;;;5023278;28;20038;-80
2024/01/04 05:02:36;;;;;;;17.27;5.10;;;;;;;;;;5020437;28;20014;-80
2024/01/04 05:05:20;;;;;;;13.53;5.10;;;;;;;;;;5017398;28;20081;-80
2024/01/04 05:07:49;;;;;;;11.77;5.93;;;;;;;;;;5019553;28;20010;-79
2024/01/04 05:13:26;;;;;;;10.00;4.33;;;;;;;;;;5002536;28;20034;-79
2024/01/04 05:16:24;;;;;;;9.67;3.77;;;;;;;;;;5014502;28;20031;-79
2024/01/04 05:18:47;;;;;;;19.73;3.80;;;;;;;;;;5023069;28;20030;-80
2024/01/04 05:21:20;;;;;;;9.33;2.53;;;;;;;;;;5019288;28;20082;-80
2024/01/04 05:23:54;;;;;;;3.17;1.97;;;;;;;;;;5016653;28;20037;-80
2024/01/04 05:26:33;;;;;;;4.90;1.93;;;;;;;;;;5015980;28;20018;-80
2024/01/04 05:29:09;;;;;;;2.87;1.47;;;;;;;;;;5019705;28;20034;-80
2024/01/04 05:31:53;;;;;;;3.87;1.30;;;;;;;;;;5018386;28;20114;-79
2024/01/04 05:34:32;;;;;;;;;;;;;;;;;;;;;
2024/01/04 05:37:11;;;;;;;;;;;;;;;;;;;;;
2024/01/04 05:39:47;;;;;;;5.40;1.40;;;;;;;;;;5034197;28;20037;-79
2024/01/04 05:42:46;;;;;;;;;;;;;;;;;;;;;
2024/01/04 05:45:21;;;;;;;0.90;0.70;;;;;;;;;;5036374;28;20043;-81
2024/01/04 05:47:57;;;;;;;2.80;1.20;;;;;;;;;;5018411;28;20037;-79
2024/01/04 05:50:33;;;;;;;2.30;1.30;;;;;;;;;;5006291;28;20077;-79
2024/01/04 05:53:08;;;;;;;2.67;0.97;;;;;;;;;;5019990;28;20073;-79
2024/01/04 05:58:28;;;;;;;2.40;1.13;;;;;;;;;;5025955;28;20022;-79
2024/01/04 06:01:02;;;;;;;3.50;1.20;;;;;;;;;;5023204;28;20049;-79
2024/01/04 06:03:51;;;;;;;;;;;;;;;;;;;;;
2024/01/04 06:06:29;;;;;;;;;;;;;;;;;;;;;
2024/01/04 06:09:07;;;;;;;;;;;;;;;;;;;;;
2024/01/04 06:11:45;;;;;;;2.87;1.20;;;;;;;;;;5027799;28;20025;-83
2024/01/04 06:14:20;;;;;;;4.57;1.30;;;;;;;;;;5017502;28;20014;-79
2024/01/04 06:16:55;;;;;;;5.47;2.47;;;;;;;;;;5020066;28;20034;-79
2024/01/04 06:19:29;;;;;;;5.00;2.40;;;;;;;;;;5018161;28;20049;-79
2024/01/04 06:22:00;;;;;;;5.90;2.57;;;;;;;;;;5018952;28;20094;-79
2024/01/04 06:24:29;;;;;;;4.28;2.28;;;;;;;;;;5019059;28;20018;-80
2024/01/04 06:27:09;;;;;;;6.27;2.70;;;;;;;;;;5019198;28;20029;-79
2024/01/04 06:29:54;;;;;;;5.37;2.23;;;;;;;;;;5008014;28;20060;-78
2024/01/04 06:32:46;;;;;;;6.70;2.67;;;;;;;;;;5016385;28;20023;-79
2024/01/04 06:35:38;;;;;;;5.30;2.37;;;;;;;;;;5020670;28;20040;-80
2024/01/04 06:38:12;;;;;;;4.72;2.35;;;;;;;;;;5018751;28;20046;-79
2024/01/04 06:41:03;;;;;;;2.83;1.80;;;;;;;;;;5020235;28;20044;-79
2024/01/04 06:54:03;;;;;;;8.57;2.00;;;;;;;;;;5005381;28;20046;-80
2024/01/04 06:56:29;;;;;;;6.13;1.50;;;;;;;;;;4988340;28;20021;-79
2024/01/04 06:58:55;;;;;;;2.80;1.33;;;;;;;;;;5002544;28;20058;-80
2024/01/04 07:01:39;;;;;;;4.13;1.40;;;;;;;;;;4979372;28;20038;-80
2024/01/04 07:04:12;;;;;;;3.73;1.30;;;;;;;;;;4986890;28;20025;-80
2024/01/04 07:06:39;;;;;;;4.43;1.20;;;;;;;;;;4988820;28;20153;-80
2024/01/04 07:09:28;;;;;;;4.30;1.53;;;;;;;;;;4985963;28;20113;-79
2024/01/04 07:12:02;;;;;;;2.93;1.50;;;;;;;;;;5005512;28;20074;-80
2024/01/04 07:14:30;;;;;;;4.03;1.30;;;;;;;;;;5022844;23;20073;-80
2024/01/04 07:17:07;;;;;;;2.57;1.80;;;;;;;;;;5016566;28;20144;-79
2024/01/04 07:19:35;;;;;;;5.77;2.03;;;;;;;;;;5000156;28;20042;-80
2024/01/04 07:22:16;;;;;;;;;;;;;;;;;;;;;
2024/01/04 07:24:45;;;;;;;3.80;2.20;;;;;;;;;;5017070;28;20046;-80
2024/01/04 07:27:20;;;;;;;6.13;2.97;;;;;;;;;;5000678;28;20026;-79
2024/01/04 07:30:00;;;;;;;7.67;3.23;;;;;;;;;;4999664;28;20022;-80
2024/01/04 07:32:36;;;;;;;8.30;3.63;;;;;;;;;;5001943;28;20033;-79
2024/01/04 07:35:05;;;;;;;12.93;4.03;;;;;;;;;;5002142;28;20025;-80
2024/01/04 07:37:33;;;;;;;7.50;4.17;;;;;;;;;;5002129;28;20026;-79
2024/01/04 07:40:37;;;;;;;8.80;3.90;;;;;;;;;;5006371;28;20038;-80
2024/01/04 07:43:09;;;;;;;11.67;4.13;;;;;;;;;;5018951;28;20057;-79
2024/01/04 07:45:40;;;;;;;10.23;4.30;;;;;;;;;;5005545;28;20018;-79
2024/01/04 07:48:07;;;;;;;16.27;4.70;;;;;;;;;;4999715;28;20022;-80
2024/01/04 07:50:50;;;;;;;6.10;4.10;;;;;;;;;;5005004;28;20279;-79
2024/01/04 07:53:22;;;;;;;10.43;4.80;;;;;;;;;;4999225;28;20283;-79
2024/01/04 07:55:51;;;;;;;13.10;4.37;;;;;;;;;;5070022;23;20034;-79
2024/01/04 07:58:27;;;;;;;13.03;4.93;;;;;;;;;;5013786;28;20054;-80
2024/01/04 08:00:58;;;;;;;11.00;5.20;;;;;;;;;;5004927;28;20039;-79
2024/01/04 08:03:47;;;;;;;14.83;5.27;;;;;;;;;;5014666;28;20062;-80
2024/01/04 08:06:33;;;;;;;13.03;4.50;;;;;;;;;;5015248;28;20022;-78
2024/01/04 08:09:11;;;;;;;11.07;4.90;;;;;;;;;;4998862;28;20050;-78
2024/01/04 08:14:40;;;;;;;;;;;;;;;;;;;;;
2024/01/04 08:17:22;;;;;;;;;;;;;;;;;;;;;
2024/01/04 08:20:04;;;;;;;14.53;5.90;;;;;;;;;;5022679;28;20076;-79
2024/01/04 08:22:53;;;;;;;15.33;5.33;;;;;;;;;;5009363;28;20041;-78
2024/01/04 08:25:30;;;;;;;17.83;5.97;;;;;;;;;;5013316;28;20022;-79
2024/01/04 08:28:19;;;;;;;18.80;5.93;;;;;;;;;;5024208;28;20049;-79
2024/01/04 08:31:05;;;;;;;12.40;5.33;;;;;;;;;;5009865;28;20053;-79
2024/01/04 08:33:47;;;;;;;;;;;;;;;;;;;;;
2024/01/04 08:39:22;;;;;;;10.07;5.00;;;;;;;;;;5022738;28;20039;-79
2024/01/04 08:41:51;;;;;;;10.77;4.90;;;;;;;;;;5024300;28;20410;-79
2024/01/04 08:44:30;;;;;;;;;;;;;;;;;;;;;
2024/01/04 08:47:20;;;;;;;;;;;;;;;;;;;;;
2024/01/04 08:50:11;;;;;;;13.87;4.57;;;;;;;;;;5034058;28;20045;-79
2024/01/04 08:52:52;;;;;;;15.90;4.70;;;;;;;;;;5017754;28;20037;-79
2024/01/04 08:55:41;;;;;;;12.47;4.60;;;;;;;;;;5019138;28;20029;-79
2024/01/04 08:58:17;;;;;;;13.10;4.03;;;;;;;;;;5033363;28;20035;-80
2024/01/04 09:00:46;;;;;;;7.57;3.43;;;;;;;;;;5018287;28;20163;-79
2024/01/04 09:03:14;;;;;;;9.80;3.90;;;;;;;;;;5017271;28;20052;-79
2024/01/04 09:05:56;;;;;;;;;;;;;;;;;;;;;
2024/01/04 09:08:35;;;;;;;14.45;4.32;;;;;;;;;;5032163;28;20026;-80
2024/01/04 09:11:34;;;;;;;;;;;;;;;;;;;;;
2024/01/04 09:14:11;;;;;;;11.77;3.93;;;;;;;;;;5033685;28;20045;-79
2024/01/04 09:19:52;;;;;;;12.03;4.20;;;;;;;;;;5007646;28;20068;-79
2024/01/04 09:22:18;;;;;;;10.47;4.17;;;;;;;;;;5018067;28;20024;-79
2024/01/04 09:24:59;;;;;;;8.33;3.33;;;;;;;;;;5032047;28;20085;-80
2024/01/04 09:27:34;;;;;;;10.43;3.87;;;;;;;;;;5014600;28;20026;-79
2024/01/04 09:30:09;;;;;;;15.70;4.60;;;;;;;;;;5022090;28;20053;-80
2024/01/04 09:33:15;;;;;;;7.63;4.10;;;;;;;;;;5035786;28;20022;-80
2024/01/04 09:36:19;;;;;;;13.73;3.83;;;;;;;;;;5037693;28;20033;-80
2024/01/04 09:39:05;;;;;;;7.27;3.30;;;;;;;;;;5010620;28;20090;-80
2024/01/04 09:41:46;;;;;;;;;;;;;;;;;;;;;
2024/01/04 09:44:24;;;;;;;;;;;;;;;;;;;;;
2024/01/04 09:46:55;;;;;;;7.43;3.47;;;;;;;;;;5037546;28;20056;-80
2024/01/04 09:49:40;;;;;;;9.00;3.77;;;;;;;;;;5021342;28;20048;-78
2024/01/04 09:52:16;;;;;;;10.17;3.73;;;;;;;;;;5021148;28;20022;-79
2024/01/04 09:55:33;;;;;;;8.80;3.67;;;;;;;;;;5020752;28;20027;-80
2024/01/04 09:58:10;;;;;;;8.93;3.93;;;;;;;;;;5017327;28;20078;-80
2024/01/04 10:01:25;;;;;;;;;;;;;;;;;;;;;
2024/01/04 10:04:17;;;;;;;11.70;3.93;;;;;;;;;;5038155;28;20038;-79
2024/01/04 10:07:00;;;;;;;;;;;;;;;;;;;;;
2024/01/04 10:10:10;;;;;;;7.23;2.90;;;;;;;;;;5038654;28;20073;-79
2024/01/04 10:12:36;;;;;;;5.47;3.17;;;;;;;;;;5010930;28;20029;-80
2024/01/04 10:15:13;;;;;;;;;;;;;;;;;;;;;
2024/01/04 10:18:03;;;;;;;7.27;3.67;;;;;;;;;;5019221;28;20042;-79
2024/01/04 10:20:56;;;;;;;9.67;4.57;;;;;;;;;;5011687;28;20021;-80
2024/01/04 10:23:31;;;;;;;10.38;4.05;;;;;;;;;;5008094;28;20030;-79
2024/01/04 10:26:20;;;;;;;;;;;;;;;;;;;;;
2024/01/04 10:28:49;;;;;;;11.80;5.30;;;;;;;;;;5027341;28;20053;-80
2024/01/04 10:31:18;;;;;;;10.23;4.83;;;;;;;;;;5010732;28;20098;-79
2024/01/04 10:33:46;;;;;;;10.07;5.33;;;;;;;;;;5011889;28;20026;-79
2024/01/04 10:36:25;;;;;;;18.53;5.60;;;;;;;;;;5013048;28;20022;-80
2024/01/04 10:42:07;;;;;;;11.23;4.20;;;;;;;;;;5016191;28;20018;-80
2024/01/04 10:44:53;;;;;;;;;;;;;;;;;;;;;
2024/01/04 10:47:26;;;;;;;7.93;3.30;;;;;;;;;;5036873;28;20022;-79
2024/01/04 10:50:03;;;;;;;8.40;2.97;;;;;;;;;;5020782;28;20026;-79
2024/01/04 10:52:51;;;;;;;8.20;3.33;;;;;;;;;;5011972;28;20021;-78
2024/01/04 10:55:25;;;;;;;12.20;3.83;;;;;;;;;;5011226;28;20006;-79
2024/01/04 10:57:52;;;;;;;12.33;3.40;;;;;;;;;;5020901;28;20037;-79
2024/01/04 11:00:33;;;;;;;;;;;;;;;;;;;;;
2024/01/04 11:03:11;;;;;;;12.90;3.33;;;;;;;;;;5035061;28;20014;-79
2024/01/04 11:05:54;;;;;;;9.80;2.93;;;;;;;;;;5022196;28;20022;-79
2024/01/04 11:08:28;;;;;;;6.80;2.50;;;;;;;;;;5031637;28;20021;-79
2024/01/04 11:10:54;;;;;;;7.23;2.00;;;;;;;;;;5022977;28;20045;-79
2024/01/04 11:13:26;;;;;;;18.90;3.03;;;;;;;;;;5022020;28;20022;-79
2024/01/04 11:16:16;;;;;;;18.98;3.38;;;;;;;;;;5020232;28;20018;-80
2024/01/04 11:19:15;;;;;;;12.23;2.93;;;;;;;;;;5019605;28;20036;-79
2024/01/04 11:22:02;;;;;;;13.10;2.70;;;;;;;;;;5006584;28;20019;-80
2024/01/04 11:24:55;;;;;;;16.47;2.63;;;;;;;;;;5016254;28;20042;-79
2024/01/04 11:27:25;;;;;;;24.20;3.30;;;;;;;;;;4988639;28;20090;-79
2024/01/04 11:30:24;;;;;;;22.43;2.50;;;;;;;;;;5012257;28;20014;-80
2024/01/04 11:36:05;;;;;;;22.80;4.13;;;;;;;;;;5020606;28;20057;-80
2024/01/04 11:41:49;;;;;;;;;;;;;;;;;;;;;
2024/01/04 11:44:16;;;;;;;25.43;4.43;;;;;;;;;;5034503;28;20002;-78
2024/01/04 11:46:59;;;;;;;17.17;4.00;;;;;;;;;;5020172;28;20022;-80
2024/01/04 11:49:28;;;;;;;;;;;;;;;;;;5021525;28;20010;-79
2024/01/04 11:51:56;;;;;;;31.43;4.90;;;;;;;;;;5018076;28;19893;-81
2024/01/04 11:54:23;;;;;;;24.87;3.73;;;;;;;;;;5017585;28;20006;-80
2024/01/04 11:57:14;;;;;;;24.60;3.63;;;;;;;;;;5032047;28;20045;-79
2024/01/04 11:59:44;;;;;;;22.70;4.13;;;;;;;;;;5016688;28;20022;-80
2024/01/04 12:02:20;;;;;;;31.43;4.80;;;;;;;;;;5012664;28;20045;-80
2024/01/04 12:04:49;;;;;;;28.27;4.33;;;;;;;;;;5305886;23;20053;-78
2024/01/04 12:07:30;;;;;;;;;;;;;;;;;;;;;
2024/01/04 12:13:34;;;;;;;25.43;5.13;;;;;;;;;;5034567;28;20037;-80
2024/01/04 12:18:47;;;;;;;30.70;4.70;;;;;;;;;;5710258;23;20027;-79
2024/01/04 12:21:17;;;;;;;25.20;5.03;;;;;;;;;;4986177;28;20041;-80
2024/01/04 12:23:54;;;;;;;23.87;4.30;;;;;;;;;;5001967;28;20019;-79
2024/01/04 12:29:16;;;;;;;25.37;4.33;;;;;;;;;;5134986;23;20073;-79
2024/01/04 12:31:50;;;;;;;32.13;4.37;;;;;;;;;;5016897;28;20037;-79
2024/01/04 12:34:31;;;;;;;20.60;4.87;;;;;;;;;;5015749;28;20042;-79
2024/01/04 12:37:10;;;;;;;34.07;5.27;;;;;;;;;;5019366;28;20025;-80
2024/01/04 12:40:20;;;;;;;18.70;4.27;;;;;;;;;;5017341;28;20038;-79
2024/01/04 12:43:18;;;;;;;24.13;3.80;;;;;;;;;;5019862;28;20018;-79
2024/01/04 12:46:12;;;;;;;26.53;3.63;;;;;;;;;;5015157;28;20025;-79
2024/01/04 12:51:46;;;;;;;;;;;;;;;;;;;;;
2024/01/04 12:57:33;;;;;;;16.27;4.77;;;;;;;;;;5031303;28;20042;-79
2024/01/04 13:00:03;;;;;;;13.33;2.90;;;;;;;;;;5014877;28;20057;-79
2024/01/04 13:02:57;;;;;;;;;;;;;;;;;;;;;
2024/01/04 13:05:29;;;;;;;17.80;3.53;;;;;;;;;;5039662;28;20042;-79
2024/01/04 13:07:57;;;;;;;18.10;3.13;;;;;;;;;;5022760;28;20052;-80
2024/01/04 13:10:48;;;;;;;20.67;3.27;;;;;;;;;;5021841;28;20010;-80
2024/01/04 13:13:46;;;;;;;18.53;3.70;;;;;;;;;;5022551;28;20022;-79
2024/01/04 13:16:32;;;;;;;17.20;3.60;;;;;;;;;;5039909;28;20014;-79
2024/01/04 13:19:03;;;;;;;18.83;2.13;;;;;;;;;;5038983;28;20026;-79
2024/01/04 13:21:34;;;;;;;16.40;3.58;;;;;;;;;;5021519;28;20018;-79
2024/01/04 13:24:12;;;;;;;7.13;2.50;;;;;;;;;;5022258;28;20050;-79
2024/01/04 13:26:42;;;;;;;22.07;2.63;;;;;;;;;;5022310;28;20013;-78
2024/01/04 13:29:11;;;;;;;9.77;1.83;;;;;;;;;;5022016;28;20097;-79
2024/01/04 13:32:07;;;;;;;;;;;;;;;;;;;;;
2024/01/04 13:34:54;;;;;;;13.03;2.37;;;;;;;;;;5039985;28;20041;-79
2024/01/04 13:37:41;;;;;;;12.80;2.63;;;;;;;;;;5013171;28;20296;-79
2024/01/04 13:40:15;;;;;;;15.27;2.60;;;;;;;;;;5039341;28;20046;-79
2024/01/04 13:42:53;;;;;;;14.80;2.83;;;;;;;;;;5011472;28;20022;-80
2024/01/04 13:45:22;;;;;;;13.90;3.80;;;;;;;;;;5085495;23;20040;-79
2024/01/04 13:47:53;;;;;;;17.67;2.93;;;;;;;;;;5032932;28;20097;-80
2024/01/04 13:50:30;;;;;;;20.00;2.70;;;;;;;;;;5019483;28;20018;-79
2024/01/04 13:53:16;;;;;;;16.73;2.87;;;;;;;;;;5031845;28;20040;-79
2024/01/04 13:55:49;;;;;;;20.33;2.90;;;;;;;;;;5033355;28;20022;-80
2024/01/04 13:58:21;;;;;;;14.77;2.80;;;;;;;;;;5018990;28;20045;-79
2024/01/04 14:01:06;;;;;;;;;;;;;;;;;;;;;
2024/01/04 14:03:44;;;;;;;14.50;2.60;;;;;;;;;;5029555;28;20018;-78
2024/01/04 14:06:26;;;;;;;;;;;;;;;;;;;;;
2024/01/04 14:09:11;;;;;;;21.88;3.10;;;;;;;;;;5031362;28;20062;-80
2024/01/04 14:12:03;;;;;;;16.47;2.87;;;;;;;;;;5031190;28;20033;-80
2024/01/04 14:14:52;;;;;;;11.23;1.77;;;;;;;;;;5013548;28;20025;-79
2024/01/04 14:17:38;;;;;;;;;;;;;;;;;;;;;
2024/01/04 14:20:23;;;;;;;;;;;;;;;;;;;;;
2024/01/04 14:23:05;;;;;;;23.17;4.67;;;;;;;;;;5027731;28;20057;-79
2024/01/04 14:25:34;;;;;;;13.07;2.60;;;;;;;;;;5012301;28;20026;-79
2024/01/04 14:28:06;;;;;;;12.43;2.33;;;;;;;;;;5014961;28;20034;-79
2024/01/04 14:31:00;;;;;;;11.73;1.65;;;;;;;;;;5025883;28;20042;-79
2024/01/04 14:33:43;;;;;;;12.43;2.53;;;;;;;;;;5024857;28;20057;-79
2024/01/04 14:36:33;;;;;;;12.43;1.83;;;;;;;;;;5015590;28;20048;-79
2024/01/04 14:39:09;;;;;;;8.83;1.33;;;;;;;;;;5012462;28;20088;-79
2024/01/04 14:41:53;;;;;;;;;;;;;;;;;;;;;
2024/01/04 14:44:20;;;;;;;10.47;2.60;;;;;;;;;;5029495;28;20034;-79
2024/01/04 14:49:41;;;;;;;13.43;2.30;;;;;;;;;;5019907;28;20109;-79
2024/01/04 14:52:33;;;;;;;21.43;2.50;;;;;;;;;;5049486;23;20026;-78
2024/01/04 14:55:06;;;;;;;18.25;2.70;;;;;;;;;;5006698;28;20034;-78
2024/01/04 14:57:59;;;;;;;;;;;;;;;;;;;;;
2024/01/04 15:00:28;;;;;;;;;;;;;;;;;;5008716;28;20058;-79
2024/01/04 15:05:53;;;;;;;;;;;;;;;;;;;;;
2024/01/04 15:08:33;;;;;;;14.03;2.47;;;;;;;;;;5006982;28;20034;-79
2024/01/04 15:11:05;;;;;;;20.43;3.53;;;;;;;;;;4993935;28;20030;-79
2024/01/04 15:16:10;;;;;;;16.27;3.07;;;;;;;;;;5006253;28;20031;-79
2024/01/04 15:21:51;;;;;;;15.63;3.03;;;;;;;;;;5006094;28;20019;-78
2024/01/04 15:24:40;;;;;;;15.57;2.37;;;;;;;;;;4996536;28;20134;-79
2024/01/04 15:27:12;;;;;;;18.13;3.40;;;;;;;;;;4989441;28;20018;-79
2024/01/04 15:29:41;;;;;;;15.65;2.45;;;;;;;;;;4993793;28;20018;-80
2024/01/04 15:32:30;;;;;;;26.47;3.30;;;;;;;;;;4986020;28;20027;-79
2024/01/04 15:34:56;;;;;;;17.27;3.10;;;;;;;;;;4991511;28;20026;-80
2024/01/04 15:37:29;;;;;;;13.80;3.00;;;;;;;;;;4988870;28;20030;-79
2024/01/04 15:40:08;;;;;;;;;;;;;;;;;;;;;
2024/01/04 15:42:44;;;;;;;21.83;3.20;;;;;;;;;;5006389;28;20025;-79
2024/01/04 15:48:18;;;;;;;20.70;3.70;;;;;;;;;;4994740;28;20034;-78
2024/01/04 15:50:44;;;;;;;18.83;3.60;;;;;;;;;;5004193;28;20027;-79
2024/01/04 15:53:17;;;;;;;18.23;3.67;;;;;;;;;;4989330;28;20050;-79
2024/01/04 15:56:15;;;;;;;21.63;5.10;;;;;;;;;;5004358;28;20094;-79
2024/01/04 15:58:47;;;;;;;13.37;2.63;;;;;;;;;;4986877;28;20054;-79
2024/01/04 16:01:30;;;;;;;;;;;;;;;;;;;;;
2024/01/04 16:06:48;;;;;;;11.83;2.20;;;;;;;;;;4997109;28;19981;-79
2024/01/04 16:09:52;;;;;;;;;;;;;;;;;;;;;
2024/01/04 16:12:30;;;;;;;16.53;4.03;;;;;;;;;;5001399;28;20030;-79
2024/01/04 16:14:56;;;;;;;19.10;4.63;;;;;;;;;;5004157;28;20050;-79
2024/01/04 16:17:22;;;;;;;15.40;3.77;;;;;;;;;;4985174;28;20038;-79
2024/01/04 16:20:56;;;;;;;13.90;4.37;;;;;;;;;;5005458;28;20054;-79
2024/01/04 16:23:09;;;;;;;14.10;2.80;;;;;;;;;;4996116;28;20018;-79
2024/01/04 16:25:45;;;;;;;21.90;5.47;;;;;;;;;;4992426;28;20043;-79
2024/01/04 16:28:24;;;;;;;;;;;;;;;;;;;;;
2024/01/04 16:31:21;;;;;;;9.70;2.53;;;;;;;;;;5002971;28;20046;-78
2024/01/04 16:33:49;;;;;;;15.67;2.23;;;;;;;;;;5003281;28;20023;-79
2024/01/04 16:36:26;;;;;;;17.33;2.27;;;;;;;;;;4988061;28;20037;-79
2024/01/04 16:39:01;;;;;;;11.67;2.90;;;;;;;;;;4985808;28;20053;-79
2024/01/04 16:41:27;;;;;;;13.43;2.73;;;;;;;;;;5004120;28;20010;-79
2024/01/04 16:43:56;;;;;;;16.60;2.70;;;;;;;;;;4998965;28;20074;-83
2024/01/04 16:46:29;;;;;;;12.23;3.03;;;;;;;;;;4996362;28;20086;-79
2024/01/04 16:52:30;;;;;;;10.60;2.37;;;;;;;;;;4976746;28;20074;-79
2024/01/04 16:54:59;;;;;;;10.93;2.63;;;;;;;;;;4994239;28;20088;-79
2024/01/04 16:57:28;;;;;;;15.87;3.27;;;;;;;;;;4998123;28;20086;-80
2024/01/04 17:00:28;;;;;;;;;;;;;;;;;;;;;
2024/01/04 17:03:18;;;;;;;13.90;2.63;;;;;;;;;;5020386;28;20015;-79
2024/01/04 17:05:51;;;;;;;13.60;2.57;;;;;;;;;;5000894;28;20029;-79
2024/01/04 17:08:43;;;;;;;8.53;2.60;;;;;;;;;;5019396;23;20899;-79
2024/01/04 17:11:41;;;;;;;16.07;3.13;;;;;;;;;;4952550;28;20019;-79
2024/01/04 17:14:16;;;;;;;9.63;2.33;;;;;;;;;;5075161;23;20328;-78
2024/01/04 17:16:48;;;;;;;9.83;3.40;;;;;;;;;;5011262;28;20026;-79
2024/01/04 17:22:47;;;;;;;14.40;4.13;;;;;;;;;;5034309;28;20265;-79
2024/01/04 17:25:13;;;;;;;15.43;3.73;;;;;;;;;;5006590;28;20010;-82
2024/01/04 17:27:50;;;;;;;14.30;3.17;;;;;;;;;;5019337;28;20038;-81
2024/01/04 17:30:37;;;;;;;9.73;2.93;;;;;;;;;;5017254;28;20013;-81
2024/01/04 17:33:08;;;;;;;14.70;2.90;;;;;;;;;;5033300;28;20049;-80
2024/01/04 17:38:46;;;;;;;12.50;2.80;;;;;;;;;;5033846;28;20037;-80
2024/01/04 17:41:34;;;;;;;17.40;3.70;;;;;;;;;;5010538;28;20046;-80
2024/01/04 17:56:37;;;;;;;19.87;2.90;;;;;;;;;;5028832;28;20041;-80
2024/01/04 17:59:19;;;;;;;10.50;2.53;;;;;;;;;;5011928;28;20030;-81
2024/01/04 18:02:11;;;;;;;18.47;3.30;;;;;;;;;;5023733;28;20038;-80
2024/01/04 18:04:56;;;;;;;15.50;3.17;;;;;;;;;;5002951;28;20094;-79
2024/01/04 18:07:47;;;;;;;15.70;2.90;;;;;;;;;;5035463;28;20037;-81
2024/01/04 18:10:16;;;;;;;18.03;3.40;;;;;;;;;;5023959;28;20021;-82
2024/01/04 18:12:47;;;;;;;18.33;3.47;;;;;;;;;;5024056;28;20007;-82
2024/01/04 18:15:23;;;;;;;;;;;;;;;;;;;;;
2024/01/04 18:17:49;;;;;;;14.30;3.50;;;;;;;;;;5030677;28;20022;-79
2024/01/04 18:20:23;;;;;;;13.43;2.93;;;;;;;;;;5020439;28;20045;-78
2024/01/04 18:23:01;;;;;;;21.10;3.83;;;;;;;;;;5009468;28;20064;-77
2024/01/04 18:25:27;;;;;;;11.13;3.60;;;;;;;;;;5020615;28;20013;-77
2024/01/04 18:27:53;;;;;;;11.27;3.17;;;;;;;;;;5020054;28;20057;-77
2024/01/04 18:30:26;;;;;;;15.00;3.17;;;;;;;;;;5016022;28;20044;-78
2024/01/04 18:32:52;;;;;;;17.63;3.40;;;;;;;;;;5036340;28;20014;-77
2024/01/04 18:35:18;;;;;;;10.77;3.50;;;;;;;;;;5017802;28;20124;-80
2024/01/04 18:37:47;;;;;;;18.87;3.80;;;;;;;;;;5018442;28;20026;-77
2024/01/04 18:40:16;;;;;;;11.60;2.87;;;;;;;;;;5021204;28;20060;-77
2024/01/04 18:42:47;;;;;;;13.67;2.80;;;;;;;;;;5023928;28;20033;-78
2024/01/04 18:45:16;;;;;;;12.93;3.30;;;;;;;;;;5037147;28;20033;-79
2024/01/04 18:47:48;;;;;;;10.90;3.07;;;;;;;;;;5017855;28;20014;-78
2024/01/04 18:50:15;;;;;;;13.13;2.80;;;;;;;;;;5018480;28;20313;-78
2024/01/04 18:52:46;;;;;;;10.53;2.40;;;;;;;;;;5017951;28;20034;-80